»·PEaware :: N24DM KDEN-KEGE

N24DM :: KDEN-KEGE

FLIGHT INFORMATION

Flight Status: Arrived
Operator: Privately registered:
United States
More flights under this callsign
Pilot: Dave M. (4986)
Aircraft: SOCATA TBM-900
(TBM9)
More flights by this aircraft type
Origin: KDEN Denver Intl
United States
Destination: KEGE Eagle Co Regl
United States
More flights between these airports :: More routes between these airports
Route: ROCKI4 RLG
File this flight plan on PilotEdge
Remarks:
Altitude:
(Current/Filed)
16,000ft
Speed:
(Current/Filed)
270kts
Departed: 08-Nov-18 07:09 PM
Arrived: 08-Nov-18 07:42 PM
Distance/Time
Traveled:
104nm/0:33
Distance/Time
To Go:
Arrived

Flight Plot

Page will automatically refresh every two minutes.

Flight plan parsing failed; only flown route is shown


Map Options




Map Legend


Flown Route
Filed Route
Departure Airport
Arrival Airport
Navaid (VOR, NDB)
Fix

Horizontal Profiles

Position Reports

Time Latitude Longitude Heading Altitude Ground
Speed
08-Nov-18 18:39 39.837878 -104.664800 1 5437ft 0kts
08-Nov-18 18:40 39.837878 -104.664800 1 5437ft 0kts
08-Nov-18 18:41 39.837878 -104.664800 1 5437ft 0kts
08-Nov-18 18:42 39.837878 -104.664800 1 5437ft 0kts
08-Nov-18 18:43 39.837878 -104.664800 1 5437ft 0kts
08-Nov-18 18:44 39.837878 -104.664800 1 5437ft 0kts
08-Nov-18 18:45 39.837879 -104.664800 1 5437ft 0kts
08-Nov-18 18:46 39.837878 -104.664800 1 5437ft 0kts
08-Nov-18 18:47 39.837879 -104.664800 1 5437ft 0kts
08-Nov-18 18:48 39.837879 -104.664800 1 5437ft 0kts
08-Nov-18 18:49 39.837879 -104.664800 1 5437ft 0kts
08-Nov-18 18:50 39.837879 -104.664800 1 5437ft 0kts
08-Nov-18 18:51 39.837879 -104.664800 1 5437ft 0kts
08-Nov-18 18:52 39.837879 -104.664800 1 5437ft 0kts
08-Nov-18 18:53 39.837879 -104.664800 1 5437ft 0kts
08-Nov-18 18:54 39.837879 -104.664800 1 5437ft 0kts
08-Nov-18 18:55 39.837879 -104.664800 1 5437ft 0kts
08-Nov-18 18:56 39.837879 -104.664800 1 5437ft 0kts
08-Nov-18 18:57 39.837879 -104.664800 1 5437ft 0kts
08-Nov-18 18:58 39.837879 -104.664800 1 5437ft 0kts
08-Nov-18 18:59 39.837879 -104.664800 1 5437ft 0kts
08-Nov-18 19:00 39.837879 -104.664800 1 5437ft 0kts
08-Nov-18 19:01 39.837879 -104.664800 1 5437ft 0kts
08-Nov-18 19:02 39.837879 -104.664800 1 5437ft 0kts
08-Nov-18 19:03 39.837879 -104.664800 1 5437ft 0kts
08-Nov-18 19:04 39.837879 -104.664800 1 5437ft 0kts
08-Nov-18 19:05 39.838445 -104.664741 17 5437ft 8kts
08-Nov-18 19:06 39.840741 -104.662535 359 5437ft 18kts
08-Nov-18 19:07 39.847004 -104.662445 359 5437ft 18kts
08-Nov-18 19:08 39.850866 -104.662453 359 5437ft 15kts
08-Nov-18 19:09 39.854849 -104.662339 2 5437ft 13kts
08-Nov-18 19:10 39.858665 -104.662301 358 5437ft 13kts
08-Nov-18 19:11 39.861060 -104.661616 85 5437ft 0kts
08-Nov-18 19:12 39.856113 -104.660190 182 5438ft 96kts
08-Nov-18 19:13 39.828165 -104.681670 252 7713ft 128kts
08-Nov-18 19:14 39.819367 -104.721015 252 9287ft 147kts
08-Nov-18 19:15 39.824210 -104.770686 287 11235ft 156kts
08-Nov-18 19:16 39.837044 -104.825022 289 13239ft 159kts
08-Nov-18 19:17 39.849741 -104.879272 289 15228ft 160kts
08-Nov-18 19:18 39.864261 -104.941249 287 16042ft 212kts
08-Nov-18 19:19 39.883171 -105.021172 287 16024ft 242kts
08-Nov-18 19:20 39.903360 -105.107006 286 16024ft 252kts
08-Nov-18 19:21 39.923741 -105.194801 286 16023ft 255kts
08-Nov-18 19:22 39.943569 -105.281067 286 16014ft 256kts
08-Nov-18 19:23 39.964594 -105.369858 288 15998ft 256kts
08-Nov-18 19:24 39.984169 -105.458873 285 16020ft 255kts
08-Nov-18 19:25 40.004205 -105.547823 286 16044ft 255kts
08-Nov-18 19:26 40.024328 -105.636690 286 16060ft 256kts
08-Nov-18 19:27 40.028861 -105.727956 268 16065ft 257kts
08-Nov-18 19:28 40.025002 -105.820969 268 16064ft 257kts
08-Nov-18 19:29 40.021762 -105.914934 268 15925ft 259kts
08-Nov-18 19:30 40.018536 -106.008717 268 15925ft 258kts
08-Nov-18 19:31 40.015257 -106.101875 268 15925ft 257kts
08-Nov-18 19:32 40.011902 -106.195104 268 15925ft 257kts
08-Nov-18 19:33 40.008468 -106.288456 268 15925ft 257kts
08-Nov-18 19:34 40.004968 -106.381566 268 15935ft 257kts
08-Nov-18 19:35 39.971330 -106.454409 206 15970ft 272kts
08-Nov-18 19:36 39.899117 -106.486155 202 15961ft 274kts
08-Nov-18 19:37 39.826218 -106.516839 202 15194ft 282kts
08-Nov-18 19:38 39.751289 -106.548281 201 13149ft 281kts
08-Nov-18 19:39 39.684330 -106.588824 246 12166ft 269kts
08-Nov-18 19:40 39.677327 -106.679496 259 10653ft 245kts
08-Nov-18 19:41 39.666047 -106.758990 259 9748ft 208kts
08-Nov-18 19:42 39.654930 -106.822978 257 8586ft 142kts
08-Nov-18 19:43 39.648358 -106.863855 268 7308ft 104kts
08-Nov-18 19:44 39.644843 -106.897706 266 6662ft 91kts
08-Nov-18 19:45 39.642497 -106.917563 205 6548ft 13kts
08-Nov-18 19:46 39.641888 -106.914906 85 6548ft 13kts
08-Nov-18 19:47 39.641286 -106.910247 92 6548ft 12kts

Navigation Log

Ident Type
Flight plan parsing failed, navigation log unavailable